Lodz, Poland
Current Conditions -  °F | °C
As of 6:30 AM on Thursday 29 Jan 2015 (Local Time) from EPLL Reporting Station
Light Snow Light Snow  
Wind Chill: 21°   Ceiling: 3200
Heat Index: 32°   Visibility: 5mi
Dew Point: 28°   Wind: 16mph
Humidity: 87%   Direction: 210°SSW
Pressure: 29.35"   Gusts: NA
Location:  51.77°N, 19.46°E
Report Text: EPLL 290430Z 21014KT 8000 -RASN SCT017 BKN032 00/M02 Q0994
Loading
Personal Weather Stations






























Interactive Weather Map New forecast layout! Learn more

10-Day Weather Forecast

Advertisements
Track Severe Weather on mobile